createdAt,value
2018-05-27T00:00:34.412Z,1013.90
2018-05-27T00:01:34.394Z,1013.89
2018-05-27T00:02:34.382Z,1013.86
2018-05-27T00:03:34.371Z,1013.84
2018-05-27T00:04:34.357Z,1013.83
2018-05-27T00:05:34.344Z,1013.85
2018-05-27T00:06:34.332Z,1013.84
2018-05-27T00:07:34.322Z,1013.84
2018-05-27T00:08:34.308Z,1013.86
2018-05-27T00:09:34.298Z,1013.81
2018-05-27T00:10:34.281Z,1013.83
2018-05-27T00:11:34.269Z,1013.77
2018-05-27T00:12:34.257Z,1013.76
2018-05-27T00:13:34.243Z,1013.78
2018-05-27T00:14:34.231Z,1013.76
2018-05-27T00:15:34.218Z,1013.74
2018-05-27T00:16:34.208Z,1013.77
2018-05-27T00:17:34.195Z,1013.78
2018-05-27T00:18:34.180Z,1013.79
2018-05-27T00:19:34.167Z,1013.81
2018-05-27T00:20:34.154Z,1013.75
2018-05-27T00:21:34.142Z,1013.72
2018-05-27T00:22:34.131Z,1013.67
2018-05-27T00:23:34.119Z,1013.64
2018-05-27T00:24:34.106Z,1013.65
2018-05-27T00:25:34.091Z,1013.63
2018-05-27T00:26:34.078Z,1013.64
2018-05-27T00:27:34.067Z,1013.64
2018-05-27T00:28:34.055Z,1013.63
2018-05-27T00:29:34.043Z,1013.65
2018-05-27T00:30:34.031Z,1013.67
2018-05-27T00:31:34.019Z,1013.63
2018-05-27T00:32:34.006Z,1013.66
2018-05-27T00:33:33.989Z,1013.65
2018-05-27T00:34:33.977Z,1013.70
2018-05-27T00:35:33.965Z,1013.67
2018-05-27T00:36:33.952Z,1013.69
2018-05-27T00:37:33.937Z,1013.68
2018-05-27T00:38:33.927Z,1013.69
2018-05-27T00:39:33.914Z,1013.73
2018-05-27T00:40:33.900Z,1013.73
2018-05-27T00:41:33.892Z,1013.74
2018-05-27T00:42:33.875Z,1013.74
2018-05-27T00:43:33.864Z,1013.77
2018-05-27T00:44:33.855Z,1013.75
2018-05-27T00:45:33.837Z,1013.79
2018-05-27T00:46:33.825Z,1013.75
2018-05-27T00:47:33.812Z,1013.77
2018-05-27T00:48:33.799Z,1013.76
2018-05-27T00:49:33.787Z,1013.72
2018-05-27T00:50:33.775Z,1013.74
2018-05-27T00:51:33.763Z,1013.73
2018-05-27T00:52:33.755Z,1013.74
2018-05-27T00:53:33.737Z,1013.74
2018-05-27T00:54:33.723Z,1013.74
2018-05-27T00:55:33.709Z,1013.72
2018-05-27T00:56:33.697Z,1013.69
2018-05-27T00:57:33.685Z,1013.70
2018-05-27T00:58:33.671Z,1013.76
2018-05-27T00:59:33.659Z,1013.76
2018-05-27T01:00:33.648Z,1013.76
2018-05-27T01:01:33.634Z,1013.78
2018-05-27T01:02:33.620Z,1013.77
2018-05-27T01:03:33.610Z,1013.78
2018-05-27T01:04:33.596Z,1013.74
2018-05-27T01:05:33.586Z,1013.77
2018-05-27T01:06:33.569Z,1013.75
2018-05-27T01:07:33.559Z,1013.72
2018-05-27T01:08:33.547Z,1013.73
2018-05-27T01:09:33.534Z,1013.75
2018-05-27T01:10:33.518Z,1013.73
2018-05-27T01:11:33.506Z,1013.74
2018-05-27T01:12:33.496Z,1013.75
2018-05-27T01:13:33.482Z,1013.75
2018-05-27T01:14:33.469Z,1013.74
2018-05-27T01:15:33.459Z,1013.69
2018-05-27T01:16:33.442Z,1013.75
2018-05-27T01:17:33.430Z,1013.72
2018-05-27T01:18:33.418Z,1013.72
2018-05-27T01:19:33.404Z,1013.75
2018-05-27T01:20:33.393Z,1013.71
2018-05-27T01:21:33.400Z,1013.71
2018-05-27T01:22:33.369Z,1013.69
2018-05-27T01:23:33.353Z,1013.69
2018-05-27T01:24:33.343Z,1013.64
2018-05-27T01:25:33.329Z,1013.63
2018-05-27T01:26:33.317Z,1013.65
2018-05-27T01:27:33.302Z,1013.66
2018-05-27T01:28:33.290Z,1013.61
2018-05-27T01:29:33.277Z,1013.61
2018-05-27T01:30:33.265Z,1013.63
2018-05-27T01:31:33.255Z,1013.63
2018-05-27T01:32:33.241Z,1013.62
2018-05-27T01:33:33.229Z,1013.64
2018-05-27T01:34:33.214Z,1013.61
2018-05-27T01:35:33.207Z,1013.59
2018-05-27T01:36:33.192Z,1013.58
2018-05-27T01:37:33.175Z,1013.61
2018-05-27T01:38:33.166Z,1013.58
2018-05-27T01:39:33.149Z,1013.55
2018-05-27T01:40:33.137Z,1013.59
2018-05-27T01:41:33.127Z,1013.54
2018-05-27T01:42:33.112Z,1013.58
2018-05-27T01:43:33.099Z,1013.55
2018-05-27T01:44:33.088Z,1013.55
2018-05-27T01:45:33.073Z,1013.55
2018-05-27T01:46:33.061Z,1013.54
2018-05-27T01:47:33.048Z,1013.54
2018-05-27T01:48:33.038Z,1013.53
2018-05-27T01:49:33.024Z,1013.48
2018-05-27T01:50:33.010Z,1013.51
2018-05-27T01:51:32.999Z,1013.50
2018-05-27T01:52:32.985Z,1013.48
2018-05-27T01:53:32.973Z,1013.49
2018-05-27T01:54:32.960Z,1013.47
2018-05-27T01:55:32.947Z,1013.47
2018-05-27T01:56:32.932Z,1013.46
2018-05-27T01:57:32.923Z,1013.46
2018-05-27T01:58:32.910Z,1013.52
2018-05-27T01:59:32.896Z,1013.47
2018-05-27T02:00:32.883Z,1013.44
2018-05-27T02:01:32.870Z,1013.45
2018-05-27T02:02:32.859Z,1013.42
2018-05-27T02:03:32.846Z,1013.39
2018-05-27T02:04:32.835Z,1013.42
2018-05-27T02:05:32.818Z,1013.40
2018-05-27T02:06:32.805Z,1013.44
2018-05-27T02:07:32.799Z,1013.40
2018-05-27T02:08:32.780Z,1013.39
2018-05-27T02:09:32.770Z,1013.39
2018-05-27T02:10:32.755Z,1013.37
2018-05-27T02:11:32.742Z,1013.38
2018-05-27T02:12:32.729Z,1013.35
2018-05-27T02:13:32.717Z,1013.39
2018-05-27T02:14:32.703Z,1013.36
2018-05-27T02:15:32.692Z,1013.34
2018-05-27T02:16:32.682Z,1013.34
2018-05-27T02:17:32.664Z,1013.34
2018-05-27T02:18:32.655Z,1013.31
2018-05-27T02:19:32.640Z,1013.35
2018-05-27T02:20:32.628Z,1013.35
2018-05-27T02:21:32.615Z,1013.37
2018-05-27T02:22:32.603Z,1013.36
2018-05-27T02:23:32.591Z,1013.39
2018-05-27T02:24:32.577Z,1013.40
2018-05-27T02:25:32.564Z,1013.38
2018-05-27T02:26:32.551Z,1013.38
2018-05-27T02:27:32.540Z,1013.36
2018-05-27T02:28:32.526Z,1013.36
2018-05-27T02:29:32.514Z,1013.34
2018-05-27T02:30:32.502Z,1013.35
2018-05-27T02:31:32.490Z,1013.38
2018-05-27T02:32:32.476Z,1013.39
2018-05-27T02:33:32.462Z,1013.38
2018-05-27T02:34:32.461Z,1013.39
2018-05-27T02:35:32.437Z,1013.36
2018-05-27T02:36:32.425Z,1013.34
2018-05-27T02:37:32.415Z,1013.33
2018-05-27T02:38:32.399Z,1013.36
2018-05-27T02:39:32.388Z,1013.33
2018-05-27T02:40:32.373Z,1013.36
2018-05-27T02:41:32.359Z,1013.33
2018-05-27T02:42:32.348Z,1013.32
2018-05-27T02:43:32.334Z,1013.32
2018-05-27T02:44:32.322Z,1013.32
2018-05-27T02:45:32.310Z,1013.28
2018-05-27T02:46:32.294Z,1013.27
2018-05-27T02:47:32.286Z,1013.28
2018-05-27T02:48:32.269Z,1013.29
2018-05-27T02:49:32.257Z,1013.31
2018-05-27T02:50:32.247Z,1013.27
2018-05-27T02:51:32.235Z,1013.27
2018-05-27T02:52:32.220Z,1013.24
2018-05-27T02:53:32.208Z,1013.24
2018-05-27T02:54:32.194Z,1013.25
2018-05-27T02:55:32.182Z,1013.25
2018-05-27T02:56:32.170Z,1013.22
2018-05-27T02:57:32.155Z,1013.25
2018-05-27T02:58:32.144Z,1013.24
2018-05-27T02:59:32.128Z,1013.23
2018-05-27T03:00:32.120Z,1013.23
2018-05-27T03:01:32.104Z,1013.25
2018-05-27T03:02:32.090Z,1013.21
2018-05-27T03:03:32.079Z,1013.24
2018-05-27T03:04:32.066Z,1013.21
2018-05-27T03:05:32.052Z,1013.22
2018-05-27T03:06:32.039Z,1013.21
2018-05-27T03:07:32.030Z,1013.20
2018-05-27T03:08:32.016Z,1013.19
2018-05-27T03:09:32.000Z,1013.18
2018-05-27T03:10:31.990Z,1013.16
2018-05-27T03:11:31.976Z,1013.20
2018-05-27T03:12:31.970Z,1013.17
2018-05-27T03:13:31.949Z,1013.14
2018-05-27T03:14:31.938Z,1013.13
2018-05-27T03:15:31.928Z,1013.14
2018-05-27T03:16:31.912Z,1013.09
2018-05-27T03:17:31.900Z,1013.08
2018-05-27T03:18:31.885Z,1013.08
2018-05-27T03:19:31.874Z,1013.09
2018-05-27T03:20:31.861Z,1013.13
2018-05-27T03:21:31.847Z,1013.11
2018-05-27T03:22:31.834Z,1013.11
2018-05-27T03:23:31.823Z,1013.12
2018-05-27T03:24:31.809Z,1013.12
2018-05-27T03:25:31.828Z,1013.14
2018-05-27T03:26:31.782Z,1013.12
2018-05-27T03:27:31.771Z,1013.12
2018-05-27T03:28:31.758Z,1013.15
2018-05-27T03:29:31.745Z,1013.14
2018-05-27T03:30:31.732Z,1013.13
2018-05-27T03:31:31.720Z,1013.13
2018-05-27T03:32:31.707Z,1013.10
2018-05-27T03:33:31.698Z,1013.11
2018-05-27T03:34:31.680Z,1013.11
2018-05-27T03:35:31.667Z,1013.10
2018-05-27T03:36:31.656Z,1013.08
2018-05-27T03:37:31.643Z,1013.11
2018-05-27T03:38:31.629Z,1013.14
2018-05-27T03:39:31.617Z,1013.14
2018-05-27T03:40:31.605Z,1013.13
2018-05-27T03:41:31.590Z,1013.18
2018-05-27T03:42:31.578Z,1013.17
2018-05-27T03:43:31.566Z,1013.20
2018-05-27T03:44:31.552Z,1013.22
2018-05-27T03:45:31.540Z,1013.21
2018-05-27T03:46:31.528Z,1013.22
2018-05-27T03:47:31.514Z,1013.22
2018-05-27T03:48:31.504Z,1013.21
2018-05-27T03:49:31.490Z,1013.20
2018-05-27T03:50:31.476Z,1013.22
2018-05-27T03:51:31.461Z,1013.20
2018-05-27T03:52:31.453Z,1013.20
2018-05-27T03:53:31.436Z,1013.17
2018-05-27T03:54:31.427Z,1013.24
2018-05-27T03:55:31.412Z,1013.20
2018-05-27T03:56:31.398Z,1013.20
2018-05-27T03:57:31.386Z,1013.24
2018-05-27T03:58:31.371Z,1013.21
2018-05-27T03:59:31.359Z,1013.25
2018-05-27T04:00:31.349Z,1013.20
2018-05-27T04:01:31.335Z,1013.19
2018-05-27T04:02:31.321Z,1013.19
2018-05-27T04:03:31.310Z,1013.18
2018-05-27T04:04:31.295Z,1013.19
2018-05-27T04:05:31.281Z,1013.20
2018-05-27T04:06:31.269Z,1013.19
2018-05-27T04:07:31.255Z,1013.16
2018-05-27T04:08:31.243Z,1013.16
2018-05-27T04:09:31.231Z,1013.20
2018-05-27T04:10:31.222Z,1013.22
2018-05-27T04:11:31.205Z,1013.22
2018-05-27T04:12:31.194Z,1013.23
2018-05-27T04:13:31.181Z,1013.23
2018-05-27T04:14:31.168Z,1013.24
2018-05-27T04:15:31.168Z,1013.20
2018-05-27T04:16:31.140Z,1013.21
2018-05-27T04:17:31.128Z,1013.19
2018-05-27T04:18:31.115Z,1013.18
2018-05-27T04:19:31.101Z,1013.19
2018-05-27T04:20:31.090Z,1013.19
2018-05-27T04:21:31.075Z,1013.20
2018-05-27T04:22:31.062Z,1013.21
2018-05-27T04:23:31.051Z,1013.24
2018-05-27T04:24:31.039Z,1013.25
2018-05-27T04:25:31.023Z,1013.31
2018-05-27T04:26:31.013Z,1013.29
2018-05-27T04:27:31.004Z,1013.30
2018-05-27T04:28:31.071Z,1013.36
2018-05-27T04:29:30.973Z,1013.37
2018-05-27T04:30:30.960Z,1013.37
2018-05-27T04:31:30.950Z,1013.36
2018-05-27T04:32:30.935Z,1013.36
2018-05-27T04:33:30.920Z,1013.38
2018-05-27T04:34:30.909Z,1013.42
2018-05-27T04:35:30.896Z,1013.39
2018-05-27T04:36:30.918Z,1013.40
2018-05-27T04:37:30.872Z,1013.41
2018-05-27T04:38:30.858Z,1013.40
2018-05-27T04:39:30.843Z,1013.43
2018-05-27T04:40:30.834Z,1013.43
2018-05-27T04:41:30.821Z,1013.42
2018-05-27T04:42:30.808Z,1013.36
2018-05-27T04:43:30.794Z,1013.38
2018-05-27T04:44:30.785Z,1013.37
2018-05-27T04:45:30.768Z,1013.37
2018-05-27T04:46:30.754Z,1013.36
2018-05-27T04:47:30.741Z,1013.40
2018-05-27T04:48:30.731Z,1013.36
2018-05-27T04:49:30.714Z,1013.40
2018-05-27T04:50:30.704Z,1013.42
2018-05-27T04:51:30.689Z,1013.40
2018-05-27T04:52:30.678Z,1013.38
2018-05-27T04:53:30.665Z,1013.39
2018-05-27T04:54:30.650Z,1013.36
2018-05-27T04:55:30.639Z,1013.37
2018-05-27T04:56:30.626Z,1013.36
2018-05-27T04:57:30.615Z,1013.31
2018-05-27T04:58:30.600Z,1013.35
2018-05-27T04:59:30.587Z,1013.32
2018-05-27T05:00:30.573Z,1013.30
2018-05-27T05:01:30.566Z,1013.30
2018-05-27T05:02:30.547Z,1013.30
2018-05-27T05:03:30.535Z,1013.28
2018-05-27T05:04:30.523Z,1013.34
2018-05-27T05:05:30.508Z,1013.29
2018-05-27T05:06:30.495Z,1013.31
2018-05-27T05:07:30.483Z,1013.30
2018-05-27T05:08:30.471Z,1013.33
2018-05-27T05:09:30.505Z,1013.30
2018-05-27T05:10:30.446Z,1013.33
2018-05-27T05:11:37.637Z,1013.31
2018-05-27T05:13:23.881Z,1013.29
2018-05-27T05:14:23.339Z,1013.31
2018-05-27T05:16:16.227Z,1013.33
2018-05-27T05:17:16.206Z,1013.36
2018-05-27T05:19:09.065Z,1013.38
2018-05-27T05:20:09.046Z,1013.38
2018-05-27T05:22:02.057Z,1013.44
2018-05-27T05:23:01.997Z,1013.43
2018-05-27T05:24:54.870Z,1013.44
2018-05-27T05:25:54.853Z,1013.45
2018-05-27T05:27:47.738Z,1013.46
2018-05-27T05:28:47.708Z,1013.45
2018-05-27T05:30:40.566Z,1013.44
2018-05-27T05:31:40.549Z,1013.47
2018-05-27T05:32:40.539Z,1013.45
2018-05-27T05:33:40.525Z,1013.43
2018-05-27T05:34:40.513Z,1013.39
2018-05-27T05:35:40.497Z,1013.40
2018-05-27T05:36:40.492Z,1013.43
2018-05-27T05:37:40.472Z,1013.39
2018-05-27T05:38:40.460Z,1013.39
2018-05-27T05:39:40.447Z,1013.39
2018-05-27T05:40:40.436Z,1013.39
2018-05-27T05:41:40.420Z,1013.42
2018-05-27T05:42:40.408Z,1013.41
2018-05-27T05:43:40.452Z,1013.41
2018-05-27T05:44:40.386Z,1013.38
2018-05-27T05:45:40.369Z,1013.39
2018-05-27T05:46:40.361Z,1013.42
2018-05-27T05:47:40.343Z,1013.42
2018-05-27T05:48:40.331Z,1013.38
2018-05-27T05:49:40.320Z,1013.41
2018-05-27T05:50:40.310Z,1013.39
2018-05-27T05:51:40.295Z,1013.39
2018-05-27T05:52:40.279Z,1013.43
2018-05-27T05:53:40.266Z,1013.42
2018-05-27T05:54:40.253Z,1013.44
2018-05-27T05:55:40.240Z,1013.41
2018-05-27T05:56:40.230Z,1013.41
2018-05-27T05:57:40.215Z,1013.44
2018-05-27T05:58:40.210Z,1013.45
2018-05-27T05:59:40.188Z,1013.44
2018-05-27T06:00:40.176Z,1013.48
2018-05-27T06:01:40.161Z,1013.46
2018-05-27T06:02:40.150Z,1013.47
2018-05-27T06:03:40.139Z,1013.44
2018-05-27T06:04:40.131Z,1013.48
2018-05-27T06:05:40.112Z,1013.50
2018-05-27T06:06:40.103Z,1013.44
2018-05-27T06:07:40.085Z,1013.46
2018-05-27T06:08:40.074Z,1013.45
2018-05-27T06:09:40.060Z,1013.44
2018-05-27T06:10:40.046Z,1013.44
2018-05-27T06:11:40.035Z,1013.45
2018-05-27T06:12:40.023Z,1013.50
2018-05-27T06:13:40.017Z,1013.48
2018-05-27T06:14:39.997Z,1013.52
2018-05-27T06:15:39.981Z,1013.52
2018-05-27T06:16:39.970Z,1013.56
2018-05-27T06:17:39.955Z,1013.52
2018-05-27T06:18:39.943Z,1013.55
2018-05-27T06:19:39.959Z,1013.56
2018-05-27T06:20:39.918Z,1013.56
2018-05-27T06:21:39.904Z,1013.62
2018-05-27T06:22:39.893Z,1013.60
2018-05-27T06:23:39.878Z,1013.60
2018-05-27T06:24:39.866Z,1013.63
2018-05-27T06:25:39.874Z,1013.60
2018-05-27T06:26:39.840Z,1013.60
2018-05-27T06:27:39.827Z,1013.57
2018-05-27T06:28:39.814Z,1013.55
2018-05-27T06:29:39.800Z,1013.62
2018-05-27T06:30:39.788Z,1013.54
2018-05-27T06:31:39.776Z,1013.52
2018-05-27T06:32:39.763Z,1013.55
2018-05-27T06:33:39.752Z,1013.53
2018-05-27T06:34:39.743Z,1013.56
2018-05-27T06:35:39.723Z,1013.58
2018-05-27T06:36:39.711Z,1013.57
2018-05-27T06:37:39.696Z,1013.55
2018-05-27T06:38:39.689Z,1013.58
2018-05-27T06:39:39.674Z,1013.56
2018-05-27T06:40:39.659Z,1013.56
2018-05-27T06:41:39.646Z,1013.57
2018-05-27T06:42:39.633Z,1013.52
2018-05-27T06:43:39.621Z,1013.52
2018-05-27T06:44:39.607Z,1013.48
2018-05-27T06:45:39.594Z,1013.49
2018-05-27T06:46:39.579Z,1013.49
2018-05-27T06:47:39.570Z,1013.51
2018-05-27T06:48:39.557Z,1013.48
2018-05-27T06:49:39.542Z,1013.49
2018-05-27T06:50:39.529Z,1013.48
2018-05-27T06:51:39.516Z,1013.52
2018-05-27T06:52:39.505Z,1013.53
2018-05-27T06:53:39.490Z,1013.52
2018-05-27T06:54:39.485Z,1013.54
2018-05-27T06:55:39.466Z,1013.53
2018-05-27T06:56:39.452Z,1013.50
2018-05-27T06:57:39.439Z,1013.48
2018-05-27T06:58:39.426Z,1013.53
2018-05-27T06:59:39.414Z,1013.52
2018-05-27T07:00:39.400Z,1013.54
2018-05-27T07:01:39.386Z,1013.51
2018-05-27T07:02:39.375Z,1013.54
2018-05-27T07:03:39.361Z,1013.52
2018-05-27T07:04:39.390Z,1013.55
2018-05-27T07:05:39.336Z,1013.51
2018-05-27T07:06:39.328Z,1013.55
2018-05-27T07:07:39.311Z,1013.54
2018-05-27T07:08:39.296Z,1013.56
2018-05-27T07:09:39.283Z,1013.60
2018-05-27T07:10:39.271Z,1013.55
2018-05-27T07:11:39.286Z,1013.56
2018-05-27T07:12:39.246Z,1013.54
2018-05-27T07:13:39.230Z,1013.54
2018-05-27T07:14:39.220Z,1013.56
2018-05-27T07:15:39.207Z,1013.53
2018-05-27T07:16:39.193Z,1013.54
2018-05-27T07:17:39.181Z,1013.54
2018-05-27T07:18:39.168Z,1013.55
2018-05-27T07:19:39.153Z,1013.48
2018-05-27T07:20:39.141Z,1013.50
2018-05-27T07:21:39.126Z,1013.47
2018-05-27T07:22:39.115Z,1013.50
2018-05-27T07:23:39.101Z,1013.48
2018-05-27T07:24:39.090Z,1013.47
2018-05-27T07:25:39.075Z,1013.50
2018-05-27T07:26:39.062Z,1013.50
2018-05-27T07:27:39.047Z,1013.48
2018-05-27T07:28:39.037Z,1013.48
2018-05-27T07:29:39.022Z,1013.47
2018-05-27T07:30:39.009Z,1013.44
2018-05-27T07:31:38.997Z,1013.46
2018-05-27T07:32:38.984Z,1013.39
2018-05-27T07:33:38.970Z,1013.40
2018-05-27T07:34:38.989Z,1013.37
2018-05-27T07:35:38.943Z,1013.34
2018-05-27T07:36:38.932Z,1013.33
2018-05-27T07:37:38.921Z,1013.34
2018-05-27T07:38:38.907Z,1013.29
2018-05-27T07:39:38.891Z,1013.29
2018-05-27T07:40:38.910Z,1013.27
2018-05-27T07:41:38.866Z,1013.29
2018-05-27T07:42:38.851Z,1013.27
2018-05-27T07:43:38.842Z,1013.25
2018-05-27T07:44:38.826Z,1013.26
2018-05-27T07:45:38.813Z,1013.24
2018-05-27T07:46:38.835Z,1013.24
2018-05-27T07:47:38.786Z,1013.21
2018-05-27T07:48:38.774Z,1013.20
2018-05-27T07:49:38.762Z,1013.22
2018-05-27T07:50:38.747Z,1013.20
2018-05-27T07:51:38.736Z,1013.21
2018-05-27T07:52:38.800Z,1013.20
2018-05-27T07:53:38.707Z,1013.21
2018-05-27T07:54:38.695Z,1013.21
2018-05-27T07:55:38.683Z,1013.19
2018-05-27T07:56:38.669Z,1013.21
2018-05-27T07:57:38.655Z,1013.22
2018-05-27T07:58:38.643Z,1013.22
2018-05-27T07:59:38.629Z,1013.18
2018-05-27T08:00:38.618Z,1013.18
2018-05-27T08:01:38.606Z,1013.19
2018-05-27T08:02:38.593Z,1013.14
2018-05-27T08:03:38.576Z,1013.12
2018-05-27T08:04:38.563Z,1013.12
2018-05-27T08:05:38.548Z,1013.08
2018-05-27T08:06:38.538Z,1013.03
2018-05-27T08:07:38.531Z,1013.04
2018-05-27T08:08:38.511Z,1013.01
2018-05-27T08:09:38.496Z,1013.04
2018-05-27T08:10:38.485Z,1013.02
2018-05-27T08:11:38.477Z,1013.00
2018-05-27T08:12:38.464Z,1013.02
2018-05-27T08:13:38.444Z,1013.01
2018-05-27T08:14:38.433Z,1013.00
2018-05-27T08:15:38.419Z,1013.00
2018-05-27T08:16:38.408Z,1012.99
2018-05-27T08:19:10.046Z,1013.00
2018-05-27T08:20:10.020Z,1012.98
2018-05-27T08:22:02.964Z,1012.97
2018-05-27T08:23:02.948Z,1012.99
2018-05-27T08:24:55.932Z,1013.00
2018-05-27T08:25:55.897Z,1013.03
2018-05-27T08:27:48.769Z,1013.02
2018-05-27T08:28:48.750Z,1013.08
2018-05-27T08:30:41.633Z,1013.01
2018-05-27T08:31:41.607Z,1013.05
2018-05-27T08:33:34.576Z,1013.03
2018-05-27T08:34:34.557Z,1013.04
2018-05-27T08:36:27.438Z,1013.14
2018-05-27T08:37:27.414Z,1013.09
2018-05-27T08:39:20.281Z,1013.10
2018-05-27T08:40:20.273Z,1013.15
2018-05-27T08:42:13.244Z,1013.16
2018-05-27T08:43:13.217Z,1013.15
2018-05-27T08:45:06.189Z,1013.14
2018-05-27T08:46:06.209Z,1013.18
2018-05-27T08:47:59.040Z,1013.14
2018-05-27T08:48:59.067Z,1013.14
2018-05-27T08:50:51.878Z,1013.13
2018-05-27T08:51:51.861Z,1013.11
2018-05-27T08:53:44.722Z,1013.14
2018-05-27T08:54:44.708Z,1013.11
2018-05-27T08:58:09.147Z,1013.14
2018-05-27T08:59:09.115Z,1013.12
2018-05-27T09:01:02.048Z,1013.14
2018-05-27T09:02:01.958Z,1013.16
2018-05-27T09:03:54.841Z,1013.15
2018-05-27T09:04:54.809Z,1013.15
2018-05-27T09:06:47.667Z,1013.15
2018-05-27T09:07:47.649Z,1013.12
2018-05-27T09:09:40.607Z,1013.09
2018-05-27T09:10:40.580Z,1013.09
2018-05-27T09:12:33.516Z,1013.10
2018-05-27T09:13:33.498Z,1013.15
2018-05-27T09:15:26.530Z,1013.13
2018-05-27T09:16:26.452Z,1013.12
2018-05-27T09:18:19.324Z,1013.14
2018-05-27T09:19:19.305Z,1013.12
2018-05-27T09:21:12.188Z,1013.05
2018-05-27T09:22:12.159Z,1013.07
2018-05-27T09:24:05.028Z,1013.05
2018-05-27T09:25:05.031Z,1013.02
2018-05-27T09:26:57.880Z,1013.03
2018-05-27T09:27:57.850Z,1013.02
2018-05-27T09:29:50.744Z,1013.02
2018-05-27T09:30:50.730Z,1013.00
2018-05-27T09:31:50.691Z,1013.03
2018-05-27T09:32:50.676Z,1013.00
2018-05-27T09:33:50.665Z,1013.00
2018-05-27T09:34:50.654Z,1013.00
2018-05-27T09:35:50.638Z,1012.97
2018-05-27T09:36:50.626Z,1012.94
2018-05-27T09:37:50.612Z,1012.91
2018-05-27T09:38:50.609Z,1012.93
2018-05-27T09:39:50.590Z,1012.91
2018-05-27T09:40:50.574Z,1012.90
2018-05-27T09:41:50.562Z,1012.92
2018-05-27T09:42:50.550Z,1012.90
2018-05-27T09:43:50.538Z,1012.90
2018-05-27T09:44:50.524Z,1012.89
2018-05-27T09:45:50.514Z,1012.89
2018-05-27T09:46:50.503Z,1012.95
2018-05-27T09:47:50.486Z,1012.92
2018-05-27T09:48:50.473Z,1012.90
2018-05-27T09:49:50.461Z,1012.92
2018-05-27T09:50:50.450Z,1012.96
2018-05-27T09:51:50.435Z,1012.91
2018-05-27T09:52:50.424Z,1012.92
2018-05-27T09:53:50.414Z,1012.89
2018-05-27T09:54:50.403Z,1012.96
2018-05-27T09:55:50.387Z,1012.88
2018-05-27T09:56:50.373Z,1012.92
2018-05-27T09:57:50.408Z,1012.85
2018-05-27T09:58:50.378Z,1012.83
2018-05-27T09:59:50.338Z,1012.82
2018-05-27T10:00:50.331Z,1012.82
2018-05-27T10:01:50.311Z,1012.79
2018-05-27T10:02:50.297Z,1012.78
2018-05-27T10:03:50.286Z,1012.77
2018-05-27T10:04:50.272Z,1012.80
2018-05-27T10:05:50.260Z,1012.75
2018-05-27T10:06:50.250Z,1012.76
2018-05-27T10:07:50.235Z,1012.76
2018-05-27T10:08:50.222Z,1012.70
2018-05-27T10:09:50.211Z,1012.70
2018-05-27T10:10:50.203Z,1012.67
2018-05-27T10:11:50.199Z,1012.66
2018-05-27T10:12:50.196Z,1012.70
2018-05-27T10:13:50.164Z,1012.63
2018-05-27T10:14:50.150Z,1012.66
2018-05-27T10:17:21.807Z,1012.64
2018-05-27T10:18:21.770Z,1012.61
2018-05-27T10:20:14.643Z,1012.59
2018-05-27T10:21:14.683Z,1012.58
2018-05-27T10:23:07.510Z,1012.63
2018-05-27T10:24:07.570Z,1012.64
2018-05-27T10:26:00.403Z,1012.60
2018-05-27T10:27:00.343Z,1012.60
2018-05-27T10:28:53.328Z,1012.54
2018-05-27T10:29:53.290Z,1012.55
2018-05-27T10:31:46.280Z,1012.57
2018-05-27T10:32:46.249Z,1012.53
2018-05-27T10:34:39.168Z,1012.58
2018-05-27T10:35:39.145Z,1012.64
2018-05-27T10:37:32.115Z,1012.64
2018-05-27T10:38:32.096Z,1012.63
2018-05-27T10:40:24.977Z,1012.61
2018-05-27T10:41:24.953Z,1012.60
2018-05-27T10:43:17.824Z,1012.65
2018-05-27T10:44:17.808Z,1012.65
2018-05-27T10:45:17.793Z,1012.67
2018-05-27T10:46:17.779Z,1012.67
2018-05-27T10:47:17.766Z,1012.61
2018-05-27T10:48:17.762Z,1012.67
2018-05-27T10:49:17.743Z,1012.70
2018-05-27T10:50:17.729Z,1012.73
2018-05-27T10:51:17.720Z,1012.75
2018-05-27T10:52:17.704Z,1012.72
2018-05-27T10:53:17.691Z,1012.70
2018-05-27T10:54:17.677Z,1012.73
2018-05-27T10:55:17.666Z,1012.69
2018-05-27T10:56:17.654Z,1012.70
2018-05-27T10:57:17.641Z,1012.74
2018-05-27T10:58:17.627Z,1012.74
2018-05-27T10:59:17.614Z,1012.80
2018-05-27T11:00:17.603Z,1012.83
2018-05-27T11:01:17.588Z,1012.86
2018-05-27T11:02:17.577Z,1012.93
2018-05-27T11:03:17.562Z,1012.89
2018-05-27T11:04:17.554Z,1012.91
2018-05-27T11:05:17.537Z,1012.93
2018-05-27T11:06:17.525Z,1012.91
2018-05-27T11:07:17.515Z,1012.93
2018-05-27T11:08:17.501Z,1012.92
2018-05-27T11:10:49.149Z,1012.79
2018-05-27T11:11:49.128Z,1012.74
2018-05-27T11:12:49.115Z,1012.73
2018-05-27T11:13:49.100Z,1012.73
2018-05-27T11:14:49.089Z,1012.69
2018-05-27T11:15:49.076Z,1012.70
2018-05-27T11:16:49.080Z,1012.72
2018-05-27T11:19:20.992Z,1012.75
2018-05-27T11:20:20.709Z,1012.77
2018-05-27T11:22:13.682Z,1012.76
2018-05-27T11:23:13.663Z,1012.78
2018-05-27T11:25:06.543Z,1012.76
2018-05-27T11:26:06.524Z,1012.79
2018-05-27T11:27:59.392Z,1012.78
2018-05-27T11:28:59.373Z,1012.75
2018-05-27T11:30:52.350Z,1012.76
2018-05-27T11:31:52.324Z,1012.74
2018-05-27T11:33:45.198Z,1012.69
2018-05-27T11:34:45.181Z,1012.68
2018-05-27T11:36:38.064Z,1012.68
2018-05-27T11:37:38.038Z,1012.66
2018-05-27T11:39:31.001Z,1012.66
2018-05-27T11:40:30.986Z,1012.67
2018-05-27T11:42:23.868Z,1012.62
2018-05-27T11:43:23.843Z,1012.63
2018-05-27T11:45:16.712Z,1012.63
2018-05-27T11:46:16.697Z,1012.63
2018-05-27T11:48:09.574Z,1012.61
2018-05-27T11:49:09.547Z,1012.64
2018-05-27T11:51:09.677Z,1012.62
2018-05-27T11:52:02.499Z,1012.63
2018-05-27T11:53:02.486Z,1012.65
2018-05-27T11:54:02.476Z,1012.64
2018-05-27T11:55:02.467Z,1012.63
2018-05-27T11:56:02.459Z,1012.63
2018-05-27T11:57:02.436Z,1012.63
2018-05-27T11:58:02.425Z,1012.62
2018-05-27T11:59:02.412Z,1012.68
2018-05-27T12:00:02.398Z,1012.74
2018-05-27T12:01:02.386Z,1012.76
2018-05-27T12:02:02.421Z,1012.81
2018-05-27T12:03:02.359Z,1012.81
2018-05-27T12:04:02.348Z,1012.85
2018-05-27T12:05:02.336Z,1012.83
2018-05-27T12:06:02.322Z,1012.84
2018-05-27T12:07:02.312Z,1012.82
2018-05-27T12:08:02.297Z,1012.81
2018-05-27T12:09:02.314Z,1012.78
2018-05-27T12:10:02.277Z,1012.84
2018-05-27T12:11:02.261Z,1012.83
2018-05-27T12:12:02.247Z,1012.86
2018-05-27T12:13:02.234Z,1012.79
2018-05-27T12:14:02.224Z,1012.74
2018-05-27T12:15:02.212Z,1012.75
2018-05-27T12:16:02.207Z,1012.73
2018-05-27T12:17:02.184Z,1012.67
2018-05-27T12:18:02.170Z,1012.67
2018-05-27T12:19:02.157Z,1012.62
2018-05-27T12:20:02.146Z,1012.59
2018-05-27T12:21:02.134Z,1012.55
2018-05-27T12:22:02.128Z,1012.56
2018-05-27T12:24:33.701Z,1012.47
2018-05-27T12:25:33.676Z,1012.52
2018-05-27T12:27:26.554Z,1012.47
2018-05-27T12:28:26.530Z,1012.52
2018-05-27T12:30:19.401Z,1012.44
2018-05-27T12:31:19.384Z,1012.42
2018-05-27T12:33:12.264Z,1012.40
2018-05-27T12:34:12.248Z,1012.39
2018-05-27T12:36:05.189Z,1012.31
2018-05-27T12:37:05.174Z,1012.31
2018-05-27T12:38:58.145Z,1012.29
2018-05-27T12:39:58.121Z,1012.30
2018-05-27T12:41:50.992Z,1012.31
2018-05-27T12:42:51.045Z,1012.29
2018-05-27T12:44:43.853Z,1012.28
2018-05-27T12:45:43.828Z,1012.28
2018-05-27T12:47:36.713Z,1012.34
2018-05-27T12:48:36.676Z,1012.40
2018-05-27T12:50:29.553Z,1012.38
2018-05-27T12:51:29.536Z,1012.39
2018-05-27T12:53:22.418Z,1012.34
2018-05-27T12:54:22.382Z,1012.37
2018-05-27T12:56:15.280Z,1012.32
2018-05-27T12:57:15.260Z,1012.32
2018-05-27T12:59:08.130Z,1012.26
2018-05-27T13:00:08.108Z,1012.26
2018-05-27T13:02:01.052Z,1012.16
2018-05-27T13:03:00.973Z,1012.17
2018-05-27T13:04:53.856Z,1012.13
2018-05-27T13:05:53.850Z,1012.10
2018-05-27T13:07:46.700Z,1012.07
2018-05-27T13:08:46.683Z,1012.04
2018-05-27T13:10:39.661Z,1012.02
2018-05-27T13:11:39.633Z,1012.01
2018-05-27T13:13:32.629Z,1011.99
2018-05-27T13:14:32.568Z,1011.96